Wishaw, United Kingdom
Current Conditions -  °F | °C
As of 3:20 AM on Tuesday 21 Oct 2014 (Local Time) from EGPF Reporting Station
Light Rain Light Rain  
Wind Chill: 55°   Ceiling: 1600
Heat Index: 55°   Visibility: 6mi
Dew Point: 54°   Wind: 26mph
Humidity: 94%   Direction: 200°SSW
Pressure: 29.09"   Gusts: 38mph
Location:  55.77°N, 3.92°W
Report Text: EGPF 210220Z AUTO 20023G33KT 9999 -RA SCT010/// BKN016/// //////CB 13/12 Q0985 RERA
Loading
Personal Weather Stations






























Interactive Weather Map
Tropical Storm Tracking
New forecast layout! Learn more

10-Day Weather Forecast

Advertisements
Track Severe Weather on mobile